sensor_id;sensor_type;location;lat;lon;timestamp;temperature;humidity
27858;DHT22;16852;51.446;6.528;2023-03-01T00:00:25;2.80;99.90
27858;DHT22;16852;51.446;6.528;2023-03-01T00:02:25;2.80;99.90
27858;DHT22;16852;51.446;6.528;2023-03-01T00:04:26;2.90;99.90
27858;DHT22;16852;51.446;6.528;2023-03-01T00:06:28;2.80;99.90
27858;DHT22;16852;51.446;6.528;2023-03-01T00:08:28;2.80;99.90
27858;DHT22;16852;51.446;6.528;2023-03-01T00:10:30;2.80;99.90
27858;DHT22;16852;51.446;6.528;2023-03-01T00:12:31;2.80;99.90
27858;DHT22;16852;51.446;6.528;2023-03-01T00:14:32;2.80;99.90
27858;DHT22;16852;51.446;6.528;2023-03-01T00:16:38;2.70;99.90
27858;DHT22;16852;51.446;6.528;2023-03-01T00:18:39;2.70;99.90
27858;DHT22;16852;51.446;6.528;2023-03-01T00:20:40;2.60;99.90
27858;DHT22;16852;51.446;6.528;2023-03-01T00:22:41;2.70;99.90
27858;DHT22;16852;51.446;6.528;2023-03-01T00:24:41;2.60;99.90
27858;DHT22;16852;51.446;6.528;2023-03-01T00:26:42;2.60;99.90
27858;DHT22;16852;51.446;6.528;2023-03-01T00:28:43;2.60;99.90
27858;DHT22;16852;51.446;6.528;2023-03-01T00:30:44;2.50;99.90
27858;DHT22;16852;51.446;6.528;2023-03-01T00:32:45;2.50;99.90
27858;DHT22;16852;51.446;6.528;2023-03-01T00:34:45;2.50;99.90
27858;DHT22;16852;51.446;6.528;2023-03-01T00:36:54;2.40;99.90
27858;DHT22;16852;51.446;6.528;2023-03-01T00:38:55;2.40;99.90
27858;DHT22;16852;51.446;6.528;2023-03-01T00:41:05;2.10;99.90
27858;DHT22;16852;51.446;6.528;2023-03-01T00:43:06;1.90;99.90
27858;DHT22;16852;51.446;6.528;2023-03-01T00:45:07;1.90;99.90
27858;DHT22;16852;51.446;6.528;2023-03-01T00:47:08;1.80;99.90
27858;DHT22;16852;51.446;6.528;2023-03-01T00:49:09;1.70;99.90
27858;DHT22;16852;51.446;6.528;2023-03-01T00:51:17;1.60;99.90
27858;DHT22;16852;51.446;6.528;2023-03-01T00:53:18;1.60;99.90
27858;DHT22;16852;51.446;6.528;2023-03-01T00:55:19;1.50;99.90
27858;DHT22;16852;51.446;6.528;2023-03-01T00:57:19;1.40;99.90
27858;DHT22;16852;51.446;6.528;2023-03-01T00:59:20;1.50;99.90
27858;DHT22;16852;51.446;6.528;2023-03-01T01:01:23;1.40;99.90
27858;DHT22;16852;51.446;6.528;2023-03-01T01:03:24;1.40;99.90
27858;DHT22;16852;51.446;6.528;2023-03-01T01:05:25;1.40;99.90
27858;DHT22;16852;51.446;6.528;2023-03-01T01:07:25;1.30;99.90
27858;DHT22;16852;51.446;6.528;2023-03-01T01:09:26;1.30;99.90
27858;DHT22;16852;51.446;6.528;2023-03-01T01:11:28;1.30;99.90
27858;DHT22;16852;51.446;6.528;2023-03-01T01:13:29;1.30;99.90
27858;DHT22;16852;51.446;6.528;2023-03-01T01:15:33;1.20;99.90
27858;DHT22;16852;51.446;6.528;2023-03-01T01:17:34;1.20;99.90
27858;DHT22;16852;51.446;6.528;2023-03-01T01:19:35;1.20;99.90
27858;DHT22;16852;51.446;6.528;2023-03-01T01:21:36;1.20;99.90
27858;DHT22;16852;51.446;6.528;2023-03-01T01:23:37;1.20;99.90
27858;DHT22;16852;51.446;6.528;2023-03-01T01:25:38;1.20;99.90
27858;DHT22;16852;51.446;6.528;2023-03-01T01:27:39;1.20;99.90
27858;DHT22;16852;51.446;6.528;2023-03-01T01:29:39;1.20;99.90
27858;DHT22;16852;51.446;6.528;2023-03-01T01:31:41;1.30;99.90
27858;DHT22;16852;51.446;6.528;2023-03-01T01:33:42;1.30;99.90
27858;DHT22;16852;51.446;6.528;2023-03-01T01:35:45;1.40;99.90
27858;DHT22;16852;51.446;6.528;2023-03-01T01:37:45;1.40;99.90
27858;DHT22;16852;51.446;6.528;2023-03-01T01:39:46;1.50;99.90
27858;DHT22;16852;51.446;6.528;2023-03-01T01:41:47;1.50;99.90
27858;DHT22;16852;51.446;6.528;2023-03-01T01:44:11;1.60;99.90
27858;DHT22;16852;51.446;6.528;2023-03-01T01:48:48;1.70;99.90
27858;DHT22;16852;51.446;6.528;2023-03-01T01:51:00;1.70;99.90
27858;DHT22;16852;51.446;6.528;2023-03-01T01:53:01;1.80;99.90
27858;DHT22;16852;51.446;6.528;2023-03-01T01:55:15;1.80;99.90
27858;DHT22;16852;51.446;6.528;2023-03-01T01:57:23;1.70;99.90
27858;DHT22;16852;51.446;6.528;2023-03-01T01:59:27;1.70;99.90
27858;DHT22;16852;51.446;6.528;2023-03-01T02:01:28;1.60;99.90
27858;DHT22;16852;51.446;6.528;2023-03-01T02:03:31;1.60;99.90
27858;DHT22;16852;51.446;6.528;2023-03-01T02:05:46;1.50;99.90
27858;DHT22;16852;51.446;6.528;2023-03-01T02:07:48;1.50;99.90
27858;DHT22;16852;51.446;6.528;2023-03-01T02:09:51;1.50;99.90
27858;DHT22;16852;51.446;6.528;2023-03-01T02:11:53;1.50;99.90
27858;DHT22;16852;51.446;6.528;2023-03-01T02:13:54;1.50;99.90
27858;DHT22;16852;51.446;6.528;2023-03-01T02:15:55;1.50;99.90
27858;DHT22;16852;51.446;6.528;2023-03-01T02:17:56;1.60;99.90
27858;DHT22;16852;51.446;6.528;2023-03-01T02:20:15;1.60;99.90
27858;DHT22;16852;51.446;6.528;2023-03-01T02:22:24;1.60;99.90
27858;DHT22;16852;51.446;6.528;2023-03-01T02:26:48;1.60;99.90
27858;DHT22;16852;51.446;6.528;2023-03-01T02:28:50;1.60;99.90
27858;DHT22;16852;51.446;6.528;2023-03-01T02:30:51;1.60;99.90
27858;DHT22;16852;51.446;6.528;2023-03-01T02:33:11;1.60;99.90
27858;DHT22;16852;51.446;6.528;2023-03-01T02:35:14;1.60;99.90
27858;DHT22;16852;51.446;6.528;2023-03-01T02:37:17;1.60;99.90
27858;DHT22;16852;51.446;6.528;2023-03-01T02:39:32;1.60;99.90
27858;DHT22;16852;51.446;6.528;2023-03-01T02:41:38;1.50;99.90
27858;DHT22;16852;51.446;6.528;2023-03-01T02:43:39;1.20;99.90
27858;DHT22;16852;51.446;6.528;2023-03-01T02:45:53;1.00;99.90
27858;DHT22;16852;51.446;6.528;2023-03-01T02:47:57;0.80;99.90
27858;DHT22;16852;51.446;6.528;2023-03-01T02:49:57;0.80;99.90
27858;DHT22;16852;51.446;6.528;2023-03-01T02:54:34;0.80;99.90
27858;DHT22;16852;51.446;6.528;2023-03-01T02:56:37;0.80;99.90
27858;DHT22;16852;51.446;6.528;2023-03-01T02:58:38;0.80;99.90
27858;DHT22;16852;51.446;6.528;2023-03-01T03:00:46;0.80;99.90
27858;DHT22;16852;51.446;6.528;2023-03-01T03:02:49;0.80;99.90
27858;DHT22;16852;51.446;6.528;2023-03-01T03:04:50;0.80;99.90
27858;DHT22;16852;51.446;6.528;2023-03-01T03:06:51;0.70;99.90
27858;DHT22;16852;51.446;6.528;2023-03-01T03:08:51;0.70;99.90
27858;DHT22;16852;51.446;6.528;2023-03-01T03:10:52;0.70;99.90
27858;DHT22;16852;51.446;6.528;2023-03-01T03:12:55;0.70;99.90
27858;DHT22;16852;51.446;6.528;2023-03-01T03:14:56;0.80;99.90
27858;DHT22;16852;51.446;6.528;2023-03-01T03:16:57;0.90;99.90
27858;DHT22;16852;51.446;6.528;2023-03-01T03:18:57;1.00;99.90
27858;DHT22;16852;51.446;6.528;2023-03-01T03:21:08;1.00;99.90
27858;DHT22;16852;51.446;6.528;2023-03-01T03:23:13;1.00;99.90
27858;DHT22;16852;51.446;6.528;2023-03-01T03:25:13;1.00;99.90
27858;DHT22;16852;51.446;6.528;2023-03-01T03:27:14;1.00;99.90
27858;DHT22;16852;51.446;6.528;2023-03-01T03:29:14;1.00;99.90
27858;DHT22;16852;51.446;6.528;2023-03-01T03:31:15;1.00;99.90
27858;DHT22;16852;51.446;6.528;2023-03-01T03:33:16;0.90;99.90
27858;DHT22;16852;51.446;6.528;2023-03-01T03:35:16;0.80;99.90
27858;DHT22;16852;51.446;6.528;2023-03-01T03:37:17;0.80;99.90
27858;DHT22;16852;51.446;6.528;2023-03-01T03:39:49;0.70;99.90
27858;DHT22;16852;51.446;6.528;2023-03-01T03:41:55;0.60;99.90
27858;DHT22;16852;51.446;6.528;2023-03-01T03:43:55;0.60;99.90
27858;DHT22;16852;51.446;6.528;2023-03-01T03:45:56;0.70;99.90
27858;DHT22;16852;51.446;6.528;2023-03-01T03:47:57;0.80;99.90
27858;DHT22;16852;51.446;6.528;2023-03-01T03:49:57;0.80;99.90
27858;DHT22;16852;51.446;6.528;2023-03-01T03:51:58;0.90;99.90
27858;DHT22;16852;51.446;6.528;2023-03-01T03:53:58;0.90;99.90
27858;DHT22;16852;51.446;6.528;2023-03-01T03:55:59;1.00;99.90
27858;DHT22;16852;51.446;6.528;2023-03-01T03:58:01;1.00;99.90
27858;DHT22;16852;51.446;6.528;2023-03-01T04:00:11;1.10;99.90
27858;DHT22;16852;51.446;6.528;2023-03-01T04:02:14;1.10;99.90
27858;DHT22;16852;51.446;6.528;2023-03-01T04:04:22;1.10;99.90
27858;DHT22;16852;51.446;6.528;2023-03-01T04:06:22;1.20;99.90
27858;DHT22;16852;51.446;6.528;2023-03-01T04:08:23;1.20;99.90
27858;DHT22;16852;51.446;6.528;2023-03-01T04:10:24;1.20;99.90
27858;DHT22;16852;51.446;6.528;2023-03-01T04:12:24;1.30;99.90
27858;DHT22;16852;51.446;6.528;2023-03-01T04:14:25;1.30;99.90
27858;DHT22;16852;51.446;6.528;2023-03-01T04:16:26;1.30;99.90
27858;DHT22;16852;51.446;6.528;2023-03-01T04:18:26;1.30;99.90
27858;DHT22;16852;51.446;6.528;2023-03-01T04:20:30;1.30;99.90
27858;DHT22;16852;51.446;6.528;2023-03-01T04:22:31;1.30;99.90
27858;DHT22;16852;51.446;6.528;2023-03-01T04:24:32;1.30;99.90
27858;DHT22;16852;51.446;6.528;2023-03-01T04:26:32;1.30;99.90
27858;DHT22;16852;51.446;6.528;2023-03-01T04:28:36;1.30;99.90
27858;DHT22;16852;51.446;6.528;2023-03-01T04:30:38;1.30;99.90
27858;DHT22;16852;51.446;6.528;2023-03-01T04:32:38;1.40;99.90
27858;DHT22;16852;51.446;6.528;2023-03-01T04:34:39;1.30;99.90
27858;DHT22;16852;51.446;6.528;2023-03-01T04:36:39;1.30;99.90
27858;DHT22;16852;51.446;6.528;2023-03-01T04:38:41;1.30;99.90
27858;DHT22;16852;51.446;6.528;2023-03-01T04:40:41;1.30;99.90
27858;DHT22;16852;51.446;6.528;2023-03-01T04:42:43;1.30;99.90
27858;DHT22;16852;51.446;6.528;2023-03-01T04:44:44;1.30;99.90
27858;DHT22;16852;51.446;6.528;2023-03-01T04:46:45;1.30;99.90
27858;DHT22;16852;51.446;6.528;2023-03-01T04:48:48;1.20;99.90
27858;DHT22;16852;51.446;6.528;2023-03-01T04:50:49;1.20;99.90
27858;DHT22;16852;51.446;6.528;2023-03-01T04:52:50;1.20;99.90
27858;DHT22;16852;51.446;6.528;2023-03-01T04:54:50;1.20;99.90
27858;DHT22;16852;51.446;6.528;2023-03-01T04:56:51;1.20;99.90
27858;DHT22;16852;51.446;6.528;2023-03-01T04:58:53;1.10;99.90
27858;DHT22;16852;51.446;6.528;2023-03-01T05:00:54;1.10;99.90
27858;DHT22;16852;51.446;6.528;2023-03-01T05:03:00;1.10;99.90
27858;DHT22;16852;51.446;6.528;2023-03-01T05:05:01;1.20;99.90
27858;DHT22;16852;51.446;6.528;2023-03-01T05:07:01;1.10;99.90
27858;DHT22;16852;51.446;6.528;2023-03-01T05:09:02;1.10;99.90
27858;DHT22;16852;51.446;6.528;2023-03-01T05:11:02;1.10;99.90
27858;DHT22;16852;51.446;6.528;2023-03-01T05:13:04;1.20;99.90
27858;DHT22;16852;51.446;6.528;2023-03-01T05:15:05;1.10;99.90
27858;DHT22;16852;51.446;6.528;2023-03-01T05:17:07;1.10;99.90
27858;DHT22;16852;51.446;6.528;2023-03-01T05:19:08;1.10;99.90
27858;DHT22;16852;51.446;6.528;2023-03-01T05:21:16;1.00;99.90
27858;DHT22;16852;51.446;6.528;2023-03-01T05:23:16;1.00;99.90
27858;DHT22;16852;51.446;6.528;2023-03-01T05:25:17;0.90;99.90
27858;DHT22;16852;51.446;6.528;2023-03-01T05:27:18;0.90;99.90
27858;DHT22;16852;51.446;6.528;2023-03-01T05:29:20;0.80;99.90
27858;DHT22;16852;51.446;6.528;2023-03-01T05:31:25;0.70;99.90
27858;DHT22;16852;51.446;6.528;2023-03-01T05:33:26;0.60;99.90
27858;DHT22;16852;51.446;6.528;2023-03-01T05:35:27;0.50;99.90
27858;DHT22;16852;51.446;6.528;2023-03-01T05:37:28;0.50;99.90
27858;DHT22;16852;51.446;6.528;2023-03-01T05:39:29;0.50;99.90
27858;DHT22;16852;51.446;6.528;2023-03-01T05:41:30;0.50;99.90
27858;DHT22;16852;51.446;6.528;2023-03-01T05:43:31;0.50;99.90
27858;DHT22;16852;51.446;6.528;2023-03-01T05:45:36;0.50;99.90
27858;DHT22;16852;51.446;6.528;2023-03-01T05:47:39;0.50;99.90
27858;DHT22;16852;51.446;6.528;2023-03-01T05:49:43;0.50;99.90
27858;DHT22;16852;51.446;6.528;2023-03-01T05:51:49;0.50;99.90
27858;DHT22;16852;51.446;6.528;2023-03-01T05:53:50;0.50;99.90
27858;DHT22;16852;51.446;6.528;2023-03-01T05:55:51;0.50;99.90
27858;DHT22;16852;51.446;6.528;2023-03-01T05:57:51;0.50;99.90
27858;DHT22;16852;51.446;6.528;2023-03-01T05:59:52;0.50;99.90
27858;DHT22;16852;51.446;6.528;2023-03-01T06:01:52;0.60;99.90
27858;DHT22;16852;51.446;6.528;2023-03-01T06:03:53;0.50;99.90
27858;DHT22;16852;51.446;6.528;2023-03-01T06:05:58;0.50;99.90
27858;DHT22;16852;51.446;6.528;2023-03-01T06:07:59;0.50;99.90
27858;DHT22;16852;51.446;6.528;2023-03-01T06:10:01;0.50;99.90
27858;DHT22;16852;51.446;6.528;2023-03-01T06:12:02;0.50;99.90
27858;DHT22;16852;51.446;6.528;2023-03-01T06:14:03;0.40;99.90
27858;DHT22;16852;51.446;6.528;2023-03-01T06:16:05;0.30;99.90
27858;DHT22;16852;51.446;6.528;2023-03-01T06:18:06;0.20;99.90
27858;DHT22;16852;51.446;6.528;2023-03-01T06:20:27;0.10;99.90
27858;DHT22;16852;51.446;6.528;2023-03-01T06:22:28;0.00;99.90
27858;DHT22;16852;51.446;6.528;2023-03-01T06:24:29;-0.10;99.90
27858;DHT22;16852;51.446;6.528;2023-03-01T06:26:30;-0.20;99.90
27858;DHT22;16852;51.446;6.528;2023-03-01T06:28:30;-0.30;99.90
27858;DHT22;16852;51.446;6.528;2023-03-01T06:30:31;-0.40;99.90
27858;DHT22;16852;51.446;6.528;2023-03-01T06:32:32;-0.50;99.90
27858;DHT22;16852;51.446;6.528;2023-03-01T06:34:32;-0.50;99.90
27858;DHT22;16852;51.446;6.528;2023-03-01T06:36:33;-0.50;99.90
27858;DHT22;16852;51.446;6.528;2023-03-01T06:38:34;-0.40;99.90
27858;DHT22;16852;51.446;6.528;2023-03-01T06:40:34;-0.40;99.90
27858;DHT22;16852;51.446;6.528;2023-03-01T06:42:35;-0.50;99.90
27858;DHT22;16852;51.446;6.528;2023-03-01T06:44:37;-0.50;99.90
27858;DHT22;16852;51.446;6.528;2023-03-01T06:46:39;-0.60;99.90
27858;DHT22;16852;51.446;6.528;2023-03-01T06:48:39;-0.60;99.90
27858;DHT22;16852;51.446;6.528;2023-03-01T06:50:40;-0.70;99.90
27858;DHT22;16852;51.446;6.528;2023-03-01T06:52:41;-0.80;99.90
27858;DHT22;16852;51.446;6.528;2023-03-01T06:54:41;-0.80;99.90
27858;DHT22;16852;51.446;6.528;2023-03-01T06:56:42;-0.90;99.90
27858;DHT22;16852;51.446;6.528;2023-03-01T06:58:42;-0.80;99.90
27858;DHT22;16852;51.446;6.528;2023-03-01T07:00:43;-0.80;99.90
27858;DHT22;16852;51.446;6.528;2023-03-01T07:02:44;-0.80;99.90
27858;DHT22;16852;51.446;6.528;2023-03-01T07:04:45;-0.70;99.90
27858;DHT22;16852;51.446;6.528;2023-03-01T07:06:45;-0.50;99.90
27858;DHT22;16852;51.446;6.528;2023-03-01T07:08:46;-0.40;99.90
27858;DHT22;16852;51.446;6.528;2023-03-01T07:10:47;-0.20;99.90
27858;DHT22;16852;51.446;6.528;2023-03-01T07:12:48;-0.10;99.90
27858;DHT22;16852;51.446;6.528;2023-03-01T07:14:48;0.00;99.90
27858;DHT22;16852;51.446;6.528;2023-03-01T07:16:49;0.10;99.90
27858;DHT22;16852;51.446;6.528;2023-03-01T07:18:49;0.20;99.90
27858;DHT22;16852;51.446;6.528;2023-03-01T07:20:50;0.20;99.90
27858;DHT22;16852;51.446;6.528;2023-03-01T07:22:52;0.40;99.90
27858;DHT22;16852;51.446;6.528;2023-03-01T07:24:53;0.50;99.90
27858;DHT22;16852;51.446;6.528;2023-03-01T07:26:53;0.70;99.90
27858;DHT22;16852;51.446;6.528;2023-03-01T07:28:54;0.90;99.90
27858;DHT22;16852;51.446;6.528;2023-03-01T07:30:54;1.10;99.90
27858;DHT22;16852;51.446;6.528;2023-03-01T07:32:56;1.30;99.90
27858;DHT22;16852;51.446;6.528;2023-03-01T07:34:57;1.40;99.90
27858;DHT22;16852;51.446;6.528;2023-03-01T07:36:57;1.60;99.90
27858;DHT22;16852;51.446;6.528;2023-03-01T07:38:58;1.80;99.90
27858;DHT22;16852;51.446;6.528;2023-03-01T07:41:03;2.10;99.90
27858;DHT22;16852;51.446;6.528;2023-03-01T07:43:03;2.20;99.90
27858;DHT22;16852;51.446;6.528;2023-03-01T07:45:05;2.50;99.90
27858;DHT22;16852;51.446;6.528;2023-03-01T07:47:06;2.60;99.90
27858;DHT22;16852;51.446;6.528;2023-03-01T07:49:07;2.80;99.90
27858;DHT22;16852;51.446;6.528;2023-03-01T07:51:07;2.80;99.90
27858;DHT22;16852;51.446;6.528;2023-03-01T07:53:09;3.10;99.90
27858;DHT22;16852;51.446;6.528;2023-03-01T07:55:10;3.40;99.90
27858;DHT22;16852;51.446;6.528;2023-03-01T07:57:11;3.60;99.90
27858;DHT22;16852;51.446;6.528;2023-03-01T07:59:11;3.90;99.90
27858;DHT22;16852;51.446;6.528;2023-03-01T08:01:16;4.20;99.90
27858;DHT22;16852;51.446;6.528;2023-03-01T08:03:17;4.40;99.90
27858;DHT22;16852;51.446;6.528;2023-03-01T08:05:18;4.60;99.90
27858;DHT22;16852;51.446;6.528;2023-03-01T08:07:18;4.40;99.90
27858;DHT22;16852;51.446;6.528;2023-03-01T08:09:19;4.60;99.90
27858;DHT22;16852;51.446;6.528;2023-03-01T08:11:19;4.70;99.90
27858;DHT22;16852;51.446;6.528;2023-03-01T08:13:20;4.80;99.90
27858;DHT22;16852;51.446;6.528;2023-03-01T08:15:22;4.90;99.90
27858;DHT22;16852;51.446;6.528;2023-03-01T08:17:23;4.90;99.90
27858;DHT22;16852;51.446;6.528;2023-03-01T08:19:23;4.90;99.90
27858;DHT22;16852;51.446;6.528;2023-03-01T08:21:24;4.80;99.90
27858;DHT22;16852;51.446;6.528;2023-03-01T08:23:25;4.90;99.90
27858;DHT22;16852;51.446;6.528;2023-03-01T08:25:25;4.80;99.90
27858;DHT22;16852;51.446;6.528;2023-03-01T08:27:26;4.90;99.90
27858;DHT22;16852;51.446;6.528;2023-03-01T08:29:26;5.20;99.90
27858;DHT22;16852;51.446;6.528;2023-03-01T08:31:31;5.40;99.90
27858;DHT22;16852;51.446;6.528;2023-03-01T08:33:32;5.60;99.90
27858;DHT22;16852;51.446;6.528;2023-03-01T08:35:32;5.70;99.90
27858;DHT22;16852;51.446;6.528;2023-03-01T08:37:33;5.20;99.90
27858;DHT22;16852;51.446;6.528;2023-03-01T08:39:33;5.00;99.90
27858;DHT22;16852;51.446;6.528;2023-03-01T08:41:34;5.40;99.90
27858;DHT22;16852;51.446;6.528;2023-03-01T08:43:35;5.60;99.90
27858;DHT22;16852;51.446;6.528;2023-03-01T08:45:35;5.60;99.90
27858;DHT22;16852;51.446;6.528;2023-03-01T08:47:36;5.60;99.90
27858;DHT22;16852;51.446;6.528;2023-03-01T08:49:36;5.70;99.90
27858;DHT22;16852;51.446;6.528;2023-03-01T08:51:37;5.80;99.90
27858;DHT22;16852;51.446;6.528;2023-03-01T08:53:38;5.80;99.90
27858;DHT22;16852;51.446;6.528;2023-03-01T08:55:38;6.00;99.90
27858;DHT22;16852;51.446;6.528;2023-03-01T08:57:39;6.00;99.90
27858;DHT22;16852;51.446;6.528;2023-03-01T08:59:39;6.00;99.90
27858;DHT22;16852;51.446;6.528;2023-03-01T09:01:41;5.90;99.90
27858;DHT22;16852;51.446;6.528;2023-03-01T09:03:44;5.80;99.90
27858;DHT22;16852;51.446;6.528;2023-03-01T09:05:44;5.90;99.90
27858;DHT22;16852;51.446;6.528;2023-03-01T09:07:46;5.90;99.90
27858;DHT22;16852;51.446;6.528;2023-03-01T09:09:46;5.60;99.90
27858;DHT22;16852;51.446;6.528;2023-03-01T09:11:47;5.60;99.90
27858;DHT22;16852;51.446;6.528;2023-03-01T09:13:50;5.60;99.90
27858;DHT22;16852;51.446;6.528;2023-03-01T09:15:51;5.60;99.90
27858;DHT22;16852;51.446;6.528;2023-03-01T09:17:52;5.80;99.90
27858;DHT22;16852;51.446;6.528;2023-03-01T09:19:52;5.80;99.90
27858;DHT22;16852;51.446;6.528;2023-03-01T09:21:53;6.00;99.90
27858;DHT22;16852;51.446;6.528;2023-03-01T09:23:55;5.90;99.90
27858;DHT22;16852;51.446;6.528;2023-03-01T09:25:57;5.80;99.90
27858;DHT22;16852;51.446;6.528;2023-03-01T09:27:57;5.80;99.90
27858;DHT22;16852;51.446;6.528;2023-03-01T09:29:58;5.70;99.90
27858;DHT22;16852;51.446;6.528;2023-03-01T09:31:58;5.50;99.90
27858;DHT22;16852;51.446;6.528;2023-03-01T09:33:59;5.70;99.90
27858;DHT22;16852;51.446;6.528;2023-03-01T09:36:05;5.60;99.90
27858;DHT22;16852;51.446;6.528;2023-03-01T09:38:06;5.50;99.90
27858;DHT22;16852;51.446;6.528;2023-03-01T09:40:08;5.80;99.90
27858;DHT22;16852;51.446;6.528;2023-03-01T09:42:15;5.80;99.90
27858;DHT22;16852;51.446;6.528;2023-03-01T09:46:22;5.90;99.90
27858;DHT22;16852;51.446;6.528;2023-03-01T09:48:26;5.80;99.90
27858;DHT22;16852;51.446;6.528;2023-03-01T09:50:36;5.80;99.90
27858;DHT22;16852;51.446;6.528;2023-03-01T09:52:54;6.00;99.90
27858;DHT22;16852;51.446;6.528;2023-03-01T09:54:59;5.90;99.90
27858;DHT22;16852;51.446;6.528;2023-03-01T09:57:19;5.60;99.00
27858;DHT22;16852;51.446;6.528;2023-03-01T09:59:28;5.50;98.90
27858;DHT22;16852;51.446;6.528;2023-03-01T10:06:15;5.60;98.60
27858;DHT22;16852;51.446;6.528;2023-03-01T10:08:36;5.40;98.60
27858;DHT22;16852;51.446;6.528;2023-03-01T10:10:43;5.40;99.50
27858;DHT22;16852;51.446;6.528;2023-03-01T10:12:45;5.50;99.90
27858;DHT22;16852;51.446;6.528;2023-03-01T10:17:15;5.70;99.70
27858;DHT22;16852;51.446;6.528;2023-03-01T10:19:32;5.90;97.70
27858;DHT22;16852;51.446;6.528;2023-03-01T10:21:41;6.10;96.70
27858;DHT22;16852;51.446;6.528;2023-03-01T10:23:43;6.30;97.20
27858;DHT22;16852;51.446;6.528;2023-03-01T10:30:39;6.40;94.90
27858;DHT22;16852;51.446;6.528;2023-03-01T10:32:43;6.10;94.90
27858;DHT22;16852;51.446;6.528;2023-03-01T10:34:44;6.00;95.80
27858;DHT22;16852;51.446;6.528;2023-03-01T10:36:48;6.00;95.80
27858;DHT22;16852;51.446;6.528;2023-03-01T10:38:56;5.90;95.80
27858;DHT22;16852;51.446;6.528;2023-03-01T10:41:00;5.80;96.10
27858;DHT22;16852;51.446;6.528;2023-03-01T10:43:06;5.80;97.40
27858;DHT22;16852;51.446;6.528;2023-03-01T10:47:29;5.70;97.10
27858;DHT22;16852;51.446;6.528;2023-03-01T10:49:30;5.80;99.20
27858;DHT22;16852;51.446;6.528;2023-03-01T10:51:32;5.70;97.80
27858;DHT22;16852;51.446;6.528;2023-03-01T10:53:35;5.70;97.00
27858;DHT22;16852;51.446;6.528;2023-03-01T10:55:38;5.90;97.30
27858;DHT22;16852;51.446;6.528;2023-03-01T10:57:40;5.90;97.90
27858;DHT22;16852;51.446;6.528;2023-03-01T10:59:41;6.10;97.70
27858;DHT22;16852;51.446;6.528;2023-03-01T11:01:42;6.00;95.70
27858;DHT22;16852;51.446;6.528;2023-03-01T11:03:43;6.10;96.40
27858;DHT22;16852;51.446;6.528;2023-03-01T11:05:55;6.20;96.40
27858;DHT22;16852;51.446;6.528;2023-03-01T11:08:00;6.20;95.30
27858;DHT22;16852;51.446;6.528;2023-03-01T11:10:11;6.20;95.10
27858;DHT22;16852;51.446;6.528;2023-03-01T11:12:16;6.20;94.50
27858;DHT22;16852;51.446;6.528;2023-03-01T11:16:38;6.30;94.40
27858;DHT22;16852;51.446;6.528;2023-03-01T11:18:39;6.30;94.20
27858;DHT22;16852;51.446;6.528;2023-03-01T11:20:40;6.20;92.70
27858;DHT22;16852;51.446;6.528;2023-03-01T11:22:54;6.10;93.90
27858;DHT22;16852;51.446;6.528;2023-03-01T11:24:55;6.30;94.50
27858;DHT22;16852;51.446;6.528;2023-03-01T11:26:59;6.10;92.30
27858;DHT22;16852;51.446;6.528;2023-03-01T11:29:06;6.30;93.20
27858;DHT22;16852;51.446;6.528;2023-03-01T11:31:09;6.40;92.80
27858;DHT22;16852;51.446;6.528;2023-03-01T11:35:32;6.40;92.60
27858;DHT22;16852;51.446;6.528;2023-03-01T11:40:05;6.50;94.80
27858;DHT22;16852;51.446;6.528;2023-03-01T11:44:28;6.60;95.10
27858;DHT22;16852;51.446;6.528;2023-03-01T11:50:47;7.00;90.50
27858;DHT22;16852;51.446;6.528;2023-03-01T11:55:30;6.80;93.10
27858;DHT22;16852;51.446;6.528;2023-03-01T12:05:35;7.10;98.20
27858;DHT22;16852;51.446;6.528;2023-03-01T12:10:22;6.90;94.70
27858;DHT22;16852;51.446;6.528;2023-03-01T12:14:53;7.10;95.20
27858;DHT22;16852;51.446;6.528;2023-03-01T12:31:43;7.70;99.10
27858;DHT22;16852;51.446;6.528;2023-03-01T12:36:23;8.00;99.90
27858;DHT22;16852;51.446;6.528;2023-03-01T12:43:09;7.80;99.30
27858;DHT22;16852;51.446;6.528;2023-03-01T12:50:14;7.80;99.90
27858;DHT22;16852;51.446;6.528;2023-03-01T12:54:44;7.80;95.20
27858;DHT22;16852;51.446;6.528;2023-03-01T12:56:46;7.50;94.10
27858;DHT22;16852;51.446;6.528;2023-03-01T13:01:45;7.60;95.60
27858;DHT22;16852;51.446;6.528;2023-03-01T13:08:54;7.90;95.90
27858;DHT22;16852;51.446;6.528;2023-03-01T13:11:03;7.50;93.50
27858;DHT22;16852;51.446;6.528;2023-03-01T13:13:20;7.50;95.30
27858;DHT22;16852;51.446;6.528;2023-03-01T13:17:41;7.60;94.40
27858;DHT22;16852;51.446;6.528;2023-03-01T13:19:58;7.60;94.90
27858;DHT22;16852;51.446;6.528;2023-03-01T13:21:59;7.70;99.90
27858;DHT22;16852;51.446;6.528;2023-03-01T13:24:00;7.80;99.90
27858;DHT22;16852;51.446;6.528;2023-03-01T13:26:11;7.80;96.60
27858;DHT22;16852;51.446;6.528;2023-03-01T13:32:37;7.90;97.50
27858;DHT22;16852;51.446;6.528;2023-03-01T13:34:50;8.00;99.90
27858;DHT22;16852;51.446;6.528;2023-03-01T13:36:50;8.00;96.50
27858;DHT22;16852;51.446;6.528;2023-03-01T13:42:56;8.00;99.90
27858;DHT22;16852;51.446;6.528;2023-03-01T13:44:56;8.10;99.90
27858;DHT22;16852;51.446;6.528;2023-03-01T13:47:02;8.20;99.90
27858;DHT22;16852;51.446;6.528;2023-03-01T13:49:04;8.20;99.90
27858;DHT22;16852;51.446;6.528;2023-03-01T13:51:08;8.30;99.90
27858;DHT22;16852;51.446;6.528;2023-03-01T13:53:15;8.40;99.90
27858;DHT22;16852;51.446;6.528;2023-03-01T13:57:32;8.40;99.90
27858;DHT22;16852;51.446;6.528;2023-03-01T13:59:46;8.30;98.90
27858;DHT22;16852;51.446;6.528;2023-03-01T14:02:10;8.20;94.90
27858;DHT22;16852;51.446;6.528;2023-03-01T14:04:25;7.60;93.30
27858;DHT22;16852;51.446;6.528;2023-03-01T14:06:32;7.40;93.70
27858;DHT22;16852;51.446;6.528;2023-03-01T14:08:35;7.30;95.10
27858;DHT22;16852;51.446;6.528;2023-03-01T14:15:37;7.10;95.60
27858;DHT22;16852;51.446;6.528;2023-03-01T14:20:22;7.20;99.90
27858;DHT22;16852;51.446;6.528;2023-03-01T14:22:25;7.40;99.90
27858;DHT22;16852;51.446;6.528;2023-03-01T14:24:27;7.40;97.20
27858;DHT22;16852;51.446;6.528;2023-03-01T14:26:30;7.20;94.10
27858;DHT22;16852;51.446;6.528;2023-03-01T14:28:33;7.10;94.90
27858;DHT22;16852;51.446;6.528;2023-03-01T14:30:41;7.10;93.90
27858;DHT22;16852;51.446;6.528;2023-03-01T14:32:42;7.00;91.60
27858;DHT22;16852;51.446;6.528;2023-03-01T14:34:50;6.90;91.80
27858;DHT22;16852;51.446;6.528;2023-03-01T14:36:51;6.90;91.50
27858;DHT22;16852;51.446;6.528;2023-03-01T14:38:51;6.90;92.10
27858;DHT22;16852;51.446;6.528;2023-03-01T14:40:56;6.90;94.10
27858;DHT22;16852;51.446;6.528;2023-03-01T14:43:00;6.90;93.40
27858;DHT22;16852;51.446;6.528;2023-03-01T14:45:03;6.90;93.70
27858;DHT22;16852;51.446;6.528;2023-03-01T14:47:04;6.90;94.50
27858;DHT22;16852;51.446;6.528;2023-03-01T14:49:19;7.00;95.30
27858;DHT22;16852;51.446;6.528;2023-03-01T14:51:20;7.00;94.20
27858;DHT22;16852;51.446;6.528;2023-03-01T14:53:27;7.00;94.10
27858;DHT22;16852;51.446;6.528;2023-03-01T14:55:34;7.10;95.30
27858;DHT22;16852;51.446;6.528;2023-03-01T14:57:36;7.20;96.70
27858;DHT22;16852;51.446;6.528;2023-03-01T14:59:36;7.20;95.80